createdAt,value
2023-05-08T00:02:09.754Z,3.70
2023-05-08T00:04:40.304Z,3.93
2023-05-08T00:07:10.489Z,3.83
2023-05-08T00:09:43.027Z,4.20
2023-05-08T00:12:11.131Z,4.40
2023-05-08T00:14:39.465Z,4.20
2023-05-08T00:17:09.074Z,4.17
2023-05-08T00:19:38.768Z,4.10
2023-05-08T00:22:07.698Z,4.27
2023-05-08T00:24:49.388Z,4.40
2023-05-08T00:27:18.619Z,4.00
2023-05-08T00:29:50.779Z,3.97
2023-05-08T00:32:20.694Z,4.07
2023-05-08T00:34:50.755Z,3.77
2023-05-08T00:37:18.582Z,4.40
2023-05-08T00:39:48.829Z,4.13
2023-05-08T00:42:18.339Z,4.27
2023-05-08T00:44:47.965Z,4.63
2023-05-08T00:47:15.941Z,4.47
2023-05-08T00:49:46.403Z,3.83
2023-05-08T00:52:16.927Z,3.73
2023-05-08T00:54:49.728Z,4.40
2023-05-08T00:57:19.996Z,4.70
2023-05-08T00:59:52.795Z,4.20
2023-05-08T01:02:23.231Z,4.30
2023-05-08T01:04:55.711Z,4.30
2023-05-08T01:07:28.412Z,3.90
2023-05-08T01:09:58.111Z,3.70
2023-05-08T01:12:37.570Z,3.93
2023-05-08T01:15:17.225Z,4.13
2023-05-08T01:18:10.710Z,3.77
2023-05-08T01:20:47.839Z,3.80
2023-05-08T01:24:01.352Z,4.53
2023-05-08T01:27:09.785Z,3.60
2023-05-08T01:30:13.916Z,4.10
2023-05-08T01:32:48.243Z,4.30
2023-05-08T01:35:23.056Z,4.27
2023-05-08T01:38:00.484Z,3.80
2023-05-08T01:40:42.016Z,3.40
2023-05-08T01:43:20.134Z,3.80
2023-05-08T01:45:51.181Z,4.10
2023-05-08T01:48:28.313Z,3.80
2023-05-08T01:51:05.942Z,3.43
2023-05-08T01:53:39.301Z,3.97
2023-05-08T01:56:16.781Z,4.07
2023-05-08T01:58:53.811Z,3.33
2023-05-08T02:01:26.079Z,4.07
2023-05-08T02:03:56.948Z,3.23
2023-05-08T02:06:29.030Z,3.97
2023-05-08T02:09:01.414Z,3.80
2023-05-08T02:11:32.456Z,4.00
2023-05-08T02:14:02.075Z,3.57
2023-05-08T02:16:40.636Z,3.70
2023-05-08T02:19:12.887Z,3.97
2023-05-08T02:21:44.892Z,4.17
2023-05-08T02:24:16.146Z,3.83
2023-05-08T02:26:47.235Z,3.53
2023-05-08T02:29:16.909Z,4.23
2023-05-08T02:31:49.162Z,3.73
2023-05-08T02:34:22.765Z,4.70
2023-05-08T02:36:54.228Z,4.33
2023-05-08T02:39:29.212Z,4.00
2023-05-08T02:41:58.881Z,3.87
2023-05-08T02:44:28.184Z,4.40
2023-05-08T02:47:07.191Z,4.17
2023-05-08T02:50:00.886Z,4.03
2023-05-08T02:52:32.001Z,4.40
2023-05-08T02:55:05.149Z,3.90
2023-05-08T02:57:41.374Z,4.03
2023-05-08T03:00:31.349Z,4.40
2023-05-08T03:03:18.986Z,4.40
2023-05-08T03:05:55.995Z,4.07
2023-05-08T03:08:29.769Z,4.33
2023-05-08T03:11:03.046Z,4.03
2023-05-08T03:13:34.642Z,4.57
2023-05-08T03:16:05.498Z,4.13
2023-05-08T03:18:52.161Z,4.67
2023-05-08T03:21:26.235Z,4.67
2023-05-08T03:24:00.939Z,4.50
2023-05-08T03:26:32.386Z,4.37
2023-05-08T03:29:03.351Z,4.40
2023-05-08T03:31:37.580Z,4.33
2023-05-08T03:34:16.962Z,5.07
2023-05-08T03:36:55.931Z,4.90
2023-05-08T03:39:27.035Z,5.13
2023-05-08T03:41:57.054Z,5.70
2023-05-08T03:44:26.233Z,4.77
2023-05-08T03:46:59.555Z,4.70
2023-05-08T03:49:31.996Z,4.70
2023-05-08T03:52:02.951Z,5.60
2023-05-08T03:54:31.985Z,6.13
2023-05-08T03:57:04.333Z,6.20
2023-05-08T03:59:44.822Z,6.27
2023-05-08T04:02:24.922Z,5.27
2023-05-08T04:05:02.776Z,6.00
2023-05-08T04:07:38.292Z,5.97
2023-05-08T04:10:15.432Z,6.13
2023-05-08T04:12:53.459Z,5.93
2023-05-08T04:15:30.967Z,6.50
2023-05-08T04:18:11.317Z,5.80
2023-05-08T04:20:44.501Z,6.13
2023-05-08T04:23:20.033Z,5.90
2023-05-08T04:25:51.682Z,5.63
2023-05-08T04:28:22.005Z,6.50
2023-05-08T04:30:52.080Z,5.77
2023-05-08T04:33:26.253Z,5.50
2023-05-08T04:35:55.366Z,5.90
2023-05-08T04:38:25.625Z,5.93
2023-05-08T04:40:53.997Z,6.20
2023-05-08T04:43:23.292Z,5.90
2023-05-08T04:45:53.666Z,6.27
2023-05-08T04:48:22.726Z,5.80
2023-05-08T04:50:50.838Z,6.07
2023-05-08T04:53:20.288Z,5.93
2023-05-08T04:55:51.087Z,5.57
2023-05-08T04:58:23.293Z,5.50
2023-05-08T05:00:54.411Z,5.77
2023-05-08T05:03:24.418Z,5.97
2023-05-08T05:06:00.192Z,6.80
2023-05-08T05:08:32.029Z,6.30
2023-05-08T05:11:03.468Z,5.77
2023-05-08T05:13:40.466Z,5.63
2023-05-08T05:16:13.561Z,6.00
2023-05-08T05:18:49.815Z,6.07
2023-05-08T05:21:28.513Z,5.73
2023-05-08T05:24:03.617Z,5.97
2023-05-08T05:26:39.784Z,5.93
2023-05-08T05:29:09.450Z,5.90
2023-05-08T05:31:40.757Z,5.87
2023-05-08T05:34:10.961Z,6.07
2023-05-08T05:36:39.617Z,6.37
2023-05-08T05:39:10.990Z,5.37
2023-05-08T05:41:46.462Z,6.23
2023-05-08T05:44:19.922Z,6.10
2023-05-08T05:46:48.102Z,5.63
2023-05-08T05:49:22.031Z,5.77
2023-05-08T05:51:51.160Z,6.20
2023-05-08T05:54:19.988Z,6.30
2023-05-08T05:56:58.020Z,5.67
2023-05-08T05:59:27.625Z,6.00
2023-05-08T06:01:55.366Z,5.97
2023-05-08T06:04:23.153Z,5.47
2023-05-08T06:06:52.108Z,5.30
2023-05-08T06:09:21.470Z,6.47
2023-05-08T06:11:55.591Z,5.70
2023-05-08T06:14:23.469Z,5.40
2023-05-08T06:16:54.160Z,6.30
2023-05-08T06:19:26.954Z,6.17
2023-05-08T06:21:58.360Z,6.60
2023-05-08T06:24:28.060Z,6.23
2023-05-08T06:27:00.027Z,6.10
2023-05-08T06:29:32.290Z,6.30
2023-05-08T06:32:03.322Z,5.83
2023-05-08T06:34:33.794Z,5.83
2023-05-08T06:37:01.720Z,5.50
2023-05-08T06:39:30.325Z,6.10
2023-05-08T06:42:03.503Z,5.50
2023-05-08T06:44:32.419Z,5.93
2023-05-08T06:47:00.438Z,6.10
2023-05-08T06:49:31.111Z,6.03
2023-05-08T06:51:59.772Z,5.27
2023-05-08T06:54:27.507Z,5.87
2023-05-08T06:56:56.766Z,6.07
2023-05-08T06:59:32.488Z,5.50
2023-05-08T07:02:04.945Z,5.37
2023-05-08T07:04:36.825Z,5.63
2023-05-08T07:07:06.943Z,4.87
2023-05-08T07:09:40.626Z,5.13
2023-05-08T07:12:14.152Z,4.73
2023-05-08T07:14:46.355Z,4.60
2023-05-08T07:17:16.915Z,4.75
2023-05-08T07:19:44.631Z,4.72
2023-05-08T07:22:12.712Z,4.10
2023-05-08T07:24:40.517Z,4.65
2023-05-08T07:27:08.416Z,4.43
2023-05-08T07:29:36.784Z,4.40
2023-05-08T07:32:08.344Z,4.72
2023-05-08T07:34:36.224Z,4.45
2023-05-08T07:37:04.287Z,4.13
2023-05-08T07:39:32.257Z,4.40
2023-05-08T07:42:00.276Z,5.07
2023-05-08T07:44:28.397Z,4.90
2023-05-08T07:46:56.145Z,5.10
2023-05-08T07:49:25.380Z,4.65
2023-05-08T07:51:53.211Z,5.13
2023-05-08T07:54:20.941Z,4.95
2023-05-08T07:56:49.023Z,5.40
2023-05-08T07:59:16.758Z,5.27
2023-05-08T08:01:47.377Z,4.80
2023-05-08T08:04:15.619Z,4.75
2023-05-08T08:06:44.900Z,5.07
2023-05-08T08:09:12.645Z,4.78
2023-05-08T08:11:40.910Z,5.40
2023-05-08T08:14:08.606Z,4.72
2023-05-08T08:16:36.542Z,4.90
2023-05-08T08:19:04.753Z,4.85
2023-05-08T08:21:32.905Z,4.32
2023-05-08T08:24:02.065Z,5.90
2023-05-08T08:26:29.689Z,4.63
2023-05-08T08:28:57.368Z,5.47
2023-05-08T08:31:25.149Z,6.00
2023-05-08T08:33:53.080Z,5.23
2023-05-08T08:36:21.464Z,5.90
2023-05-08T08:38:49.576Z,5.60
2023-05-08T08:41:18.871Z,5.43
2023-05-08T08:43:46.754Z,5.27
2023-05-08T08:46:15.662Z,5.37
2023-05-08T08:48:46.630Z,5.20
2023-05-08T08:51:28.968Z,5.10
2023-05-08T08:54:06.126Z,5.47
2023-05-08T08:56:38.081Z,5.50
2023-05-08T08:59:07.065Z,4.63
2023-05-08T09:01:36.990Z,5.47
2023-05-08T09:04:05.447Z,5.18
2023-05-08T09:06:37.315Z,5.15
2023-05-08T09:09:06.054Z,5.80
2023-05-08T09:11:37.276Z,5.47
2023-05-08T09:14:05.122Z,5.03
2023-05-08T09:16:33.233Z,5.90
2023-05-08T09:19:01.767Z,5.67
2023-05-08T09:21:30.659Z,5.17
2023-05-08T09:23:59.937Z,5.67
2023-05-08T09:26:33.565Z,5.50
2023-05-08T09:29:13.590Z,5.57
2023-05-08T09:31:43.221Z,5.20
2023-05-08T09:34:12.561Z,5.50
2023-05-08T09:36:42.102Z,5.93
2023-05-08T09:39:12.959Z,6.20
2023-05-08T09:41:41.256Z,5.27
2023-05-08T09:44:08.959Z,5.50
2023-05-08T09:46:38.046Z,4.97
2023-05-08T09:49:05.789Z,5.80
2023-05-08T09:51:33.927Z,6.30
2023-05-08T09:54:05.763Z,5.60
2023-05-08T09:56:36.139Z,4.78
2023-05-08T09:59:06.706Z,6.22
2023-05-08T10:01:36.779Z,5.38
2023-05-08T10:04:06.672Z,5.25
2023-05-08T10:06:36.405Z,5.45
2023-05-08T10:09:12.154Z,5.95
2023-05-08T10:11:40.991Z,5.80
2023-05-08T10:14:09.445Z,5.38
2023-05-08T10:16:41.699Z,5.75
2023-05-08T10:19:15.043Z,5.43
2023-05-08T10:21:46.774Z,5.97
2023-05-08T10:24:17.919Z,5.63
2023-05-08T10:27:05.718Z,4.80
2023-05-08T10:29:42.556Z,5.70
2023-05-08T10:32:11.710Z,6.10
2023-05-08T10:34:42.569Z,5.68
2023-05-08T10:37:11.308Z,5.60
2023-05-08T10:39:41.273Z,6.57
2023-05-08T10:42:09.379Z,5.07
2023-05-08T10:44:37.920Z,5.68
2023-05-08T10:47:12.764Z,5.57
2023-05-08T10:49:52.781Z,5.68
2023-05-08T10:52:26.125Z,5.20
2023-05-08T10:55:24.136Z,5.80
2023-05-08T10:58:06.898Z,5.50
2023-05-08T11:01:13.825Z,5.45
2023-05-08T11:03:43.976Z,5.70
2023-05-08T11:06:14.325Z,6.28
2023-05-08T11:08:47.924Z,4.95
2023-05-08T11:11:24.940Z,5.70
2023-05-08T11:13:56.569Z,4.93
2023-05-08T11:17:01.739Z,5.72
2023-05-08T11:19:30.266Z,5.25
2023-05-08T11:22:29.114Z,5.05
2023-05-08T11:24:59.488Z,5.65
2023-05-08T11:28:13.920Z,5.00
2023-05-08T11:30:41.657Z,5.63
2023-05-08T11:33:33.168Z,6.22
2023-05-08T11:36:02.351Z,5.00
2023-05-08T11:38:34.255Z,5.90
2023-05-08T11:41:04.611Z,5.63
2023-05-08T11:44:09.565Z,4.88
2023-05-08T11:46:41.571Z,5.32
2023-05-08T11:49:14.387Z,5.85
2023-05-08T11:51:45.017Z,5.15
2023-05-08T11:54:17.563Z,5.18
2023-05-08T11:56:47.962Z,4.93
2023-05-08T11:59:17.919Z,5.78
2023-05-08T12:01:50.851Z,6.20
2023-05-08T12:04:28.204Z,5.57
2023-05-08T12:06:59.400Z,5.50
2023-05-08T12:09:27.703Z,5.80
2023-05-08T12:11:58.761Z,5.40
2023-05-08T12:14:27.933Z,5.85
2023-05-08T12:16:55.888Z,5.93
2023-05-08T12:19:23.657Z,5.78
2023-05-08T12:21:51.514Z,5.28
2023-05-08T12:24:23.165Z,5.47
2023-05-08T12:26:55.491Z,5.78
2023-05-08T12:29:24.190Z,4.60
2023-05-08T12:31:54.430Z,5.15
2023-05-08T12:34:23.038Z,5.72
2023-05-08T12:37:02.188Z,5.95
2023-05-08T12:39:29.906Z,5.25
2023-05-08T12:42:00.196Z,5.57
2023-05-08T12:44:31.694Z,5.78
2023-05-08T12:47:01.496Z,6.10
2023-05-08T12:49:30.992Z,6.25
2023-05-08T12:52:03.855Z,5.57
2023-05-08T12:54:36.267Z,5.38
2023-05-08T12:57:10.605Z,6.63
2023-05-08T12:59:38.628Z,4.97
2023-05-08T13:02:14.092Z,6.20
2023-05-08T13:04:42.487Z,5.00
2023-05-08T13:07:10.716Z,5.22
2023-05-08T13:09:38.478Z,5.55
2023-05-08T13:12:07.565Z,5.72
2023-05-08T13:14:35.331Z,5.70
2023-05-08T13:17:03.098Z,5.20
2023-05-08T13:19:32.287Z,5.80
2023-05-08T13:22:00.292Z,5.35
2023-05-08T13:24:28.017Z,5.07
2023-05-08T13:26:55.868Z,5.15
2023-05-08T13:29:24.255Z,5.00
2023-05-08T13:31:52.087Z,5.85
2023-05-08T13:34:19.857Z,5.15
2023-05-08T13:36:48.943Z,5.85
2023-05-08T13:39:16.680Z,6.05
2023-05-08T13:41:44.644Z,5.57
2023-05-08T13:44:12.765Z,4.97
2023-05-08T13:46:40.422Z,5.00
2023-05-08T13:49:08.083Z,5.70
2023-05-08T13:51:35.814Z,6.10
2023-05-08T13:54:05.017Z,5.72
2023-05-08T13:56:32.738Z,5.20
2023-05-08T13:59:00.518Z,5.70
2023-05-08T14:01:28.712Z,5.47
2023-05-08T14:03:56.684Z,4.45
2023-05-08T14:06:24.653Z,5.70
2023-05-08T14:11:41.462Z,5.60
2023-05-08T14:12:42.961Z,5.85
2023-05-08T14:14:09.286Z,6.00
2023-05-08T14:16:37.665Z,5.28
2023-05-08T14:19:05.395Z,5.10
2023-05-08T14:21:34.540Z,5.32
2023-05-08T14:24:02.312Z,5.53
2023-05-08T14:26:30.033Z,5.25
2023-05-08T14:28:59.098Z,5.53
2023-05-08T14:31:26.918Z,5.70
2023-05-08T14:33:55.004Z,5.90
2023-05-08T14:36:22.990Z,5.20
2023-05-08T14:38:51.224Z,5.90
2023-05-08T14:41:19.273Z,5.72
2023-05-08T14:43:47.309Z,5.72
2023-05-08T14:46:16.466Z,4.88
2023-05-08T14:48:44.558Z,6.22
2023-05-08T14:51:14.006Z,5.28
2023-05-08T14:53:42.196Z,4.40
2023-05-08T14:56:10.414Z,4.68
2023-05-08T14:58:38.360Z,4.80
2023-05-08T15:01:06.491Z,5.28
2023-05-08T15:03:35.810Z,5.07
2023-05-08T15:06:04.843Z,4.78
2023-05-08T15:08:32.648Z,4.45
2023-05-08T15:11:00.388Z,5.00
2023-05-08T15:13:28.270Z,5.43
2023-05-08T15:15:56.021Z,4.60
2023-05-08T15:18:25.466Z,5.00
2023-05-08T15:20:54.665Z,5.40
2023-05-08T15:23:22.447Z,5.10
2023-05-08T15:25:50.672Z,5.72
2023-05-08T15:28:19.741Z,5.03
2023-05-08T15:30:47.849Z,5.15
2023-05-08T15:33:15.843Z,5.10
2023-05-08T15:35:43.576Z,4.93
2023-05-08T15:38:12.788Z,4.30
2023-05-08T15:40:40.548Z,4.30
2023-05-08T15:43:08.331Z,4.30
2023-05-08T15:45:36.766Z,4.45
2023-05-08T15:48:04.772Z,3.70
2023-05-08T15:50:32.819Z,3.90
2023-05-08T15:53:00.670Z,3.97
2023-05-08T15:55:29.785Z,3.72
2023-05-08T15:57:57.766Z,3.40
2023-05-08T16:00:30.155Z,4.18
2023-05-08T16:03:05.304Z,3.40
2023-05-08T16:05:33.375Z,3.55
2023-05-08T16:08:01.606Z,3.60
2023-05-08T16:10:30.727Z,3.60
2023-05-08T16:13:00.595Z,3.53
2023-05-08T16:15:28.679Z,3.58
2023-05-08T16:17:56.698Z,3.13
2023-05-08T16:20:25.168Z,3.42
2023-05-08T16:22:55.149Z,3.70
2023-05-08T16:25:23.231Z,3.00
2023-05-08T16:27:53.108Z,3.28
2023-05-08T16:30:21.057Z,3.17
2023-05-08T16:32:49.118Z,3.42
2023-05-08T16:35:18.248Z,3.08
2023-05-08T16:37:46.505Z,3.33
2023-05-08T16:40:16.793Z,3.53
2023-05-08T16:42:44.913Z,3.67
2023-05-08T16:45:14.708Z,3.70
2023-05-08T16:47:42.739Z,3.35
2023-05-08T16:50:11.462Z,2.97
2023-05-08T16:52:39.181Z,3.50
2023-05-08T16:55:08.057Z,3.77
2023-05-08T16:57:35.919Z,3.33
2023-05-08T17:00:04.191Z,2.57
2023-05-08T17:02:33.388Z,3.10
2023-05-08T17:05:01.757Z,3.97
2023-05-08T17:07:29.473Z,3.10
2023-05-08T17:09:58.069Z,3.30
2023-05-08T17:12:28.345Z,3.27
2023-05-08T17:14:56.970Z,3.63
2023-05-08T17:17:25.748Z,3.00
2023-05-08T17:19:54.812Z,2.78
2023-05-08T17:22:23.025Z,3.43
2023-05-08T17:24:50.989Z,2.67
2023-05-08T17:27:20.110Z,2.83
2023-05-08T17:29:48.110Z,3.10
2023-05-08T17:32:16.016Z,2.85
2023-05-08T17:34:44.203Z,3.10
2023-05-08T17:37:13.721Z,2.87
2023-05-08T17:39:42.063Z,2.93
2023-05-08T17:42:10.898Z,2.77
2023-05-08T17:44:38.810Z,2.83
2023-05-08T17:47:06.601Z,2.70
2023-05-08T17:49:34.358Z,2.47
2023-05-08T17:52:03.364Z,2.57
2023-05-08T17:54:32.667Z,2.70
2023-05-08T17:57:00.781Z,3.10
2023-05-08T17:59:28.994Z,2.80
2023-05-08T18:01:56.965Z,2.30
2023-05-08T18:04:26.246Z,2.90
2023-05-08T18:06:56.402Z,2.30
2023-05-08T18:09:24.503Z,2.60
2023-05-08T18:11:55.848Z,2.90
2023-05-08T18:14:24.305Z,3.03
2023-05-08T18:16:52.078Z,3.20
2023-05-08T18:19:19.801Z,2.87
2023-05-08T18:21:47.873Z,2.87
2023-05-08T18:24:15.937Z,3.50
2023-05-08T18:26:47.028Z,3.20
2023-05-08T18:29:19.352Z,3.20
2023-05-08T18:31:47.331Z,2.47
2023-05-08T18:34:16.394Z,3.00
2023-05-08T18:36:44.307Z,3.47
2023-05-08T18:39:12.142Z,2.77
2023-05-08T18:41:39.905Z,3.17
2023-05-08T18:44:09.305Z,3.07
2023-05-08T18:46:38.502Z,2.93
2023-05-08T18:49:06.756Z,3.20
2023-05-08T18:51:34.514Z,2.93
2023-05-08T18:54:04.880Z,3.23
2023-05-08T18:56:37.197Z,2.83
2023-05-08T18:59:05.058Z,3.07
2023-05-08T19:01:33.867Z,2.97
2023-05-08T19:04:04.161Z,3.43
2023-05-08T19:06:33.168Z,2.90
2023-05-08T19:09:01.155Z,3.40
2023-05-08T19:11:29.094Z,2.90
2023-05-08T19:13:56.834Z,3.20
2023-05-08T19:16:25.038Z,3.40
2023-05-08T19:18:52.852Z,3.57
2023-05-08T19:21:21.907Z,2.70
2023-05-08T19:23:49.808Z,3.00
2023-05-08T19:26:20.088Z,2.93
2023-05-08T19:28:48.030Z,3.10
2023-05-08T19:31:15.831Z,2.70
2023-05-08T19:33:43.623Z,3.70
2023-05-08T19:36:11.615Z,3.27
2023-05-08T19:38:40.701Z,3.67
2023-05-08T19:41:08.846Z,3.30
2023-05-08T19:43:37.212Z,3.07
2023-05-08T19:46:06.551Z,2.57
2023-05-08T19:48:36.892Z,3.43
2023-05-08T19:51:16.310Z,3.03
2023-05-08T19:53:48.622Z,3.10
2023-05-08T19:56:16.894Z,2.67
2023-05-08T19:58:49.654Z,3.40
2023-05-08T20:01:20.902Z,3.67
2023-05-08T20:03:49.432Z,2.87
2023-05-08T20:06:17.531Z,3.67
2023-05-08T20:08:47.252Z,3.30
2023-05-08T20:11:17.741Z,2.87
2023-05-08T20:13:46.150Z,2.83
2023-05-08T20:16:14.156Z,3.43
2023-05-08T20:18:41.845Z,3.17
2023-05-08T20:21:12.102Z,3.10
2023-05-08T20:23:41.219Z,2.97
2023-05-08T20:26:10.858Z,3.00
2023-05-08T20:28:40.923Z,2.93
2023-05-08T20:31:08.905Z,2.97
2023-05-08T20:33:36.782Z,2.83
2023-05-08T20:36:05.112Z,2.70
2023-05-08T20:38:33.658Z,2.87
2023-05-08T20:41:01.597Z,2.90
2023-05-08T20:43:32.110Z,2.80
2023-05-08T20:46:01.482Z,3.17
2023-05-08T20:48:29.221Z,3.17
2023-05-08T20:51:00.534Z,3.10
2023-05-08T20:53:28.743Z,2.90
2023-05-08T20:56:01.568Z,2.70
2023-05-08T20:58:32.610Z,2.80
2023-05-08T21:01:02.690Z,2.93
2023-05-08T21:03:31.100Z,2.70
2023-05-08T21:06:06.482Z,3.07
2023-05-08T21:08:35.491Z,2.97
2023-05-08T21:11:08.877Z,2.67
2023-05-08T21:13:46.006Z,2.73
2023-05-08T21:16:14.217Z,2.80
2023-05-08T21:18:45.049Z,2.80
2023-05-08T21:21:17.355Z,2.80
2023-05-08T21:23:45.432Z,2.53
2023-05-08T21:26:13.603Z,2.70
2023-05-08T21:28:47.758Z,2.97
2023-05-08T21:31:16.688Z,2.90
2023-05-08T21:33:47.866Z,2.90
2023-05-08T21:36:19.231Z,2.40
2023-05-08T21:38:47.326Z,2.93
2023-05-08T21:41:17.320Z,2.70
2023-05-08T21:43:47.933Z,2.70
2023-05-08T21:46:21.173Z,2.27
2023-05-08T21:48:49.311Z,2.27
2023-05-08T21:51:19.821Z,2.43
2023-05-08T21:53:49.842Z,2.70
2023-05-08T21:56:20.082Z,2.60
2023-05-08T21:58:51.611Z,2.40
2023-05-08T22:01:19.831Z,2.50
2023-05-08T22:03:49.523Z,2.77
2023-05-08T22:06:17.913Z,3.20
2023-05-08T22:08:47.567Z,2.60
2023-05-08T22:11:15.282Z,3.23
2023-05-08T22:13:50.361Z,3.13
2023-05-08T22:16:20.321Z,3.20
2023-05-08T22:18:49.240Z,3.17
2023-05-08T22:21:17.383Z,3.50
2023-05-08T22:23:46.025Z,3.37
2023-05-08T22:26:16.467Z,2.73
2023-05-08T22:28:45.623Z,3.10
2023-05-08T22:31:14.929Z,3.17
2023-05-08T22:33:46.787Z,2.87
2023-05-08T22:36:14.875Z,2.73
2023-05-08T22:38:45.246Z,2.97
2023-05-08T22:41:17.001Z,3.17
2023-05-08T22:43:52.096Z,3.97
2023-05-08T22:46:21.422Z,3.20
2023-05-08T22:48:55.697Z,3.30
2023-05-08T22:51:24.273Z,2.90
2023-05-08T22:53:56.669Z,3.40
2023-05-08T22:56:25.718Z,3.20
2023-05-08T22:58:57.531Z,3.20
2023-05-08T23:01:25.453Z,3.27
2023-05-08T23:03:59.874Z,3.40
2023-05-08T23:06:29.681Z,3.13
2023-05-08T23:09:12.562Z,3.03
2023-05-08T23:11:42.469Z,3.43
2023-05-08T23:14:12.846Z,3.57
2023-05-08T23:16:40.623Z,3.53
2023-05-08T23:19:17.017Z,3.33
2023-05-08T23:21:49.635Z,3.70
2023-05-08T23:24:19.917Z,3.53
2023-05-08T23:26:52.782Z,3.50
2023-05-08T23:29:23.319Z,3.63
2023-05-08T23:31:55.048Z,3.53
2023-05-08T23:34:31.892Z,3.20
2023-05-08T23:37:03.211Z,3.63
2023-05-08T23:39:34.800Z,3.60
2023-05-08T23:42:06.646Z,3.87
2023-05-08T23:44:36.152Z,3.50
2023-05-08T23:47:07.379Z,3.57
2023-05-08T23:49:39.128Z,3.47
2023-05-08T23:52:09.534Z,3.93
2023-05-08T23:54:39.431Z,4.00
2023-05-08T23:57:09.425Z,4.17
2023-05-08T23:59:37.586Z,4.10
